sensor_id;sensor_type;location;lat;lon;timestamp;pressure;altitude;pressure_sealevel;temperature
61977;BMP280;45905;50.570;10.428;2023-01-15T00:02:22;96395.25;;;8.96
61977;BMP280;45905;50.570;10.428;2023-01-15T00:04:50;96391.16;;;8.95
61977;BMP280;45905;50.570;10.428;2023-01-15T00:07:18;96378.97;;;8.99
61977;BMP280;45905;50.570;10.428;2023-01-15T00:09:45;96372.16;;;8.99
61977;BMP280;45905;50.570;10.428;2023-01-15T00:12:12;96369.25;;;9.02
61977;BMP280;45905;50.570;10.428;2023-01-15T00:14:39;96370.81;;;9.03
61977;BMP280;45905;50.570;10.428;2023-01-15T00:17:06;96360.56;;;9.05
61977;BMP280;45905;50.570;10.428;2023-01-15T00:19:33;96351.22;;;9.05
61977;BMP280;45905;50.570;10.428;2023-01-15T00:22:00;96358.63;;;9.07
61977;BMP280;45905;50.570;10.428;2023-01-15T00:24:28;96344.47;;;9.12
61977;BMP280;45905;50.570;10.428;2023-01-15T00:27:14;96354.59;;;9.12
61977;BMP280;45905;50.570;10.428;2023-01-15T00:29:59;96335.94;;;9.13
61977;BMP280;45905;50.570;10.428;2023-01-15T00:32:27;96336.56;;;9.15
61977;BMP280;45905;50.570;10.428;2023-01-15T00:34:58;96336.97;;;9.18
61977;BMP280;45905;50.570;10.428;2023-01-15T00:37:26;96326.09;;;9.18
61977;BMP280;45905;50.570;10.428;2023-01-15T00:39:53;96321.63;;;9.20
61977;BMP280;45905;50.570;10.428;2023-01-15T00:42:21;96327.44;;;9.20
61977;BMP280;45905;50.570;10.428;2023-01-15T00:44:48;96333.28;;;9.21
61977;BMP280;45905;50.570;10.428;2023-01-15T00:47:15;96314.47;;;9.23
61977;BMP280;45905;50.570;10.428;2023-01-15T00:49:43;96322.81;;;9.24
61977;BMP280;45905;50.570;10.428;2023-01-15T00:52:11;96325.94;;;9.26
61977;BMP280;45905;50.570;10.428;2023-01-15T00:54:38;96327.13;;;9.30
61977;BMP280;45905;50.570;10.428;2023-01-15T00:57:05;96320.16;;;9.32
61977;BMP280;45905;50.570;10.428;2023-01-15T00:59:32;96319.19;;;9.33
61977;BMP280;45905;50.570;10.428;2023-01-15T01:01:59;96314.75;;;9.34
61977;BMP280;45905;50.570;10.428;2023-01-15T01:04:27;96318.84;;;9.35
61977;BMP280;45905;50.570;10.428;2023-01-15T01:06:54;96316.88;;;9.37
61977;BMP280;45905;50.570;10.428;2023-01-15T01:09:21;96301.72;;;9.37
61977;BMP280;45905;50.570;10.428;2023-01-15T01:11:49;96291.44;;;9.39
61977;BMP280;45905;50.570;10.428;2023-01-15T01:14:16;96289.50;;;9.41
61977;BMP280;45905;50.570;10.428;2023-01-15T01:16:43;96281.75;;;9.42
61977;BMP280;45905;50.570;10.428;2023-01-15T01:19:18;96296.72;;;9.44
61977;BMP280;45905;50.570;10.428;2023-01-15T01:21:46;96276.31;;;9.45
61977;BMP280;45905;50.570;10.428;2023-01-15T01:24:20;96272.03;;;9.46
61977;BMP280;45905;50.570;10.428;2023-01-15T01:26:49;96273.59;;;9.47
61977;BMP280;45905;50.570;10.428;2023-01-15T01:29:21;96263.91;;;9.50
61977;BMP280;45905;50.570;10.428;2023-01-15T01:31:49;96274.63;;;9.52
61977;BMP280;45905;50.570;10.428;2023-01-15T01:34:17;96260.81;;;9.54
61977;BMP280;45905;50.570;10.428;2023-01-15T01:36:45;96259.06;;;9.55
61977;BMP280;45905;50.570;10.428;2023-01-15T01:39:16;96253.03;;;9.56
61977;BMP280;45905;50.570;10.428;2023-01-15T01:41:45;96250.31;;;9.57
61977;BMP280;45905;50.570;10.428;2023-01-15T01:47:19;96246.06;;;9.58
61977;BMP280;45905;50.570;10.428;2023-01-15T01:49:54;96250.31;;;9.57
61977;BMP280;45905;50.570;10.428;2023-01-15T01:52:46;96249.19;;;9.60
61977;BMP280;45905;50.570;10.428;2023-01-15T01:55:19;96257.38;;;9.62
61977;BMP280;45905;50.570;10.428;2023-01-15T01:57:51;96243.16;;;9.61
61977;BMP280;45905;50.570;10.428;2023-01-15T02:00:19;96243.75;;;9.63
61977;BMP280;45905;50.570;10.428;2023-01-15T02:02:47;96254.63;;;9.63
61977;BMP280;45905;50.570;10.428;2023-01-15T02:05:46;96248.81;;;9.63
61977;BMP280;45905;50.570;10.428;2023-01-15T02:08:15;96253.88;;;9.63
61977;BMP280;45905;50.570;10.428;2023-01-15T02:10:42;96246.28;;;9.63
61977;BMP280;45905;50.570;10.428;2023-01-15T02:13:24;96241.97;;;9.63
61977;BMP280;45905;50.570;10.428;2023-01-15T02:16:09;96238.31;;;9.66
61977;BMP280;45905;50.570;10.428;2023-01-15T02:27:22;96226.88;;;9.70
61977;BMP280;45905;50.570;10.428;2023-01-15T02:30:15;96230.53;;;9.67
61977;BMP280;45905;50.570;10.428;2023-01-15T02:33:10;96221.81;;;9.70
61977;BMP280;45905;50.570;10.428;2023-01-15T02:35:58;96227.84;;;9.69
61977;BMP280;45905;50.570;10.428;2023-01-15T02:38:39;96219.28;;;9.70
61977;BMP280;45905;50.570;10.428;2023-01-15T02:41:09;96233.28;;;9.72
61977;BMP280;45905;50.570;10.428;2023-01-15T02:43:51;96223.94;;;9.72
61977;BMP280;45905;50.570;10.428;2023-01-15T02:46:29;96223.75;;;9.74
61977;BMP280;45905;50.570;10.428;2023-01-15T02:49:00;96222.00;;;9.74
61977;BMP280;45905;50.570;10.428;2023-01-15T02:51:54;96228.81;;;9.74
61977;BMP280;45905;50.570;10.428;2023-01-15T02:54:29;96243.78;;;9.75
61977;BMP280;45905;50.570;10.428;2023-01-15T02:57:00;96258.63;;;9.78
61977;BMP280;45905;50.570;10.428;2023-01-15T02:59:37;96259.94;;;9.74
61977;BMP280;45905;50.570;10.428;2023-01-15T03:02:14;96285.72;;;9.57
61977;BMP280;45905;50.570;10.428;2023-01-15T03:04:51;96297.50;;;9.44
61977;BMP280;45905;50.570;10.428;2023-01-15T03:07:36;96292.97;;;9.33
61977;BMP280;45905;50.570;10.428;2023-01-15T03:10:09;96296.41;;;9.26
61977;BMP280;45905;50.570;10.428;2023-01-15T03:12:57;96295.53;;;9.13
61977;BMP280;45905;50.570;10.428;2023-01-15T03:16:02;96297.25;;;9.06
61977;BMP280;45905;50.570;10.428;2023-01-15T03:19:28;96301.78;;;8.90
61977;BMP280;45905;50.570;10.428;2023-01-15T03:24:53;96297.78;;;8.75
61977;BMP280;45905;50.570;10.428;2023-01-15T03:27:23;96303.00;;;8.74
61977;BMP280;45905;50.570;10.428;2023-01-15T03:30:08;96304.91;;;8.72
61977;BMP280;45905;50.570;10.428;2023-01-15T03:32:36;96313.03;;;8.67
61977;BMP280;45905;50.570;10.428;2023-01-15T03:35:37;96312.63;;;8.64
61977;BMP280;45905;50.570;10.428;2023-01-15T03:37:55;96318.19;;;8.59
61977;BMP280;45905;50.570;10.428;2023-01-15T03:40:23;96311.53;;;8.52
61977;BMP280;45905;50.570;10.428;2023-01-15T03:43:04;96317.81;;;8.42
61977;BMP280;45905;50.570;10.428;2023-01-15T03:45:54;96334.63;;;8.35
61977;BMP280;45905;50.570;10.428;2023-01-15T03:48:41;96339.78;;;8.27
61977;BMP280;45905;50.570;10.428;2023-01-15T03:51:22;96326.06;;;8.16
61977;BMP280;45905;50.570;10.428;2023-01-15T03:53:58;96321.03;;;8.16
61977;BMP280;45905;50.570;10.428;2023-01-15T03:56:44;96320.63;;;8.12
61977;BMP280;45905;50.570;10.428;2023-01-15T03:59:22;96318.88;;;8.13
61977;BMP280;45905;50.570;10.428;2023-01-15T04:02:01;96314.78;;;8.12
61977;BMP280;45905;50.570;10.428;2023-01-15T04:04:32;96319.84;;;8.12
61977;BMP280;45905;50.570;10.428;2023-01-15T04:07:03;96320.97;;;8.09
61977;BMP280;45905;50.570;10.428;2023-01-15T04:09:37;96328.34;;;8.11
61977;BMP280;45905;50.570;10.428;2023-01-15T04:12:08;96319.41;;;8.08
61977;BMP280;45905;50.570;10.428;2023-01-15T04:14:39;96323.03;;;8.06
61977;BMP280;45905;50.570;10.428;2023-01-15T04:17:11;96317.03;;;8.07
61977;BMP280;45905;50.570;10.428;2023-01-15T04:19:38;96322.25;;;8.05
61977;BMP280;45905;50.570;10.428;2023-01-15T04:22:10;96320.13;;;8.02
61977;BMP280;45905;50.570;10.428;2023-01-15T04:24:37;96319.34;;;8.02
61977;BMP280;45905;50.570;10.428;2023-01-15T04:27:04;96327.25;;;7.99
61977;BMP280;45905;50.570;10.428;2023-01-15T04:29:32;96331.56;;;7.91
61977;BMP280;45905;50.570;10.428;2023-01-15T04:31:59;96346.53;;;7.92
61977;BMP280;45905;50.570;10.428;2023-01-15T04:34:28;96346.63;;;7.84
61977;BMP280;45905;50.570;10.428;2023-01-15T04:36:56;96352.38;;;7.79
61977;BMP280;45905;50.570;10.428;2023-01-15T04:39:23;96352.19;;;7.66
61977;BMP280;45905;50.570;10.428;2023-01-15T04:41:50;96366.69;;;7.64
61977;BMP280;45905;50.570;10.428;2023-01-15T04:44:37;96365.91;;;7.49
61977;BMP280;45905;50.570;10.428;2023-01-15T04:47:04;96371.88;;;7.48
61977;BMP280;45905;50.570;10.428;2023-01-15T04:49:33;96383.25;;;7.44
61977;BMP280;45905;50.570;10.428;2023-01-15T04:52:01;96386.78;;;7.36
61977;BMP280;45905;50.570;10.428;2023-01-15T04:54:29;96381.84;;;7.28
61977;BMP280;45905;50.570;10.428;2023-01-15T04:56:56;96381.75;;;7.22
61977;BMP280;45905;50.570;10.428;2023-01-15T04:59:25;96395.28;;;7.21
61977;BMP280;45905;50.570;10.428;2023-01-15T05:01:53;96402.13;;;7.12
61977;BMP280;45905;50.570;10.428;2023-01-15T05:04:32;96392.38;;;7.09
61977;BMP280;45905;50.570;10.428;2023-01-15T05:07:02;96396.53;;;7.03
61977;BMP280;45905;50.570;10.428;2023-01-15T05:09:29;96407.28;;;6.97
61977;BMP280;45905;50.570;10.428;2023-01-15T05:11:57;96413.44;;;6.94
61977;BMP280;45905;50.570;10.428;2023-01-15T05:14:24;96409.25;;;6.87
61977;BMP280;45905;50.570;10.428;2023-01-15T05:16:51;96420.16;;;6.80
61977;BMP280;45905;50.570;10.428;2023-01-15T05:19:19;96434.50;;;6.71
61977;BMP280;45905;50.570;10.428;2023-01-15T05:21:46;96438.97;;;6.62
61977;BMP280;45905;50.570;10.428;2023-01-15T05:24:16;96449.72;;;6.48
61977;BMP280;45905;50.570;10.428;2023-01-15T05:26:44;96444.69;;;6.48
61977;BMP280;45905;50.570;10.428;2023-01-15T05:29:12;96456.69;;;6.38
61977;BMP280;45905;50.570;10.428;2023-01-15T05:31:40;96454.81;;;6.32
61977;BMP280;45905;50.570;10.428;2023-01-15T05:34:09;96467.22;;;6.34
61977;BMP280;45905;50.570;10.428;2023-01-15T05:36:37;96469.75;;;6.34
61977;BMP280;45905;50.570;10.428;2023-01-15T05:39:04;96480.31;;;6.29
61977;BMP280;45905;50.570;10.428;2023-01-15T05:41:32;96482.47;;;6.32
61977;BMP280;45905;50.570;10.428;2023-01-15T05:44:24;96485.03;;;6.25
61977;BMP280;45905;50.570;10.428;2023-01-15T05:46:56;96488.81;;;6.21
61977;BMP280;45905;50.570;10.428;2023-01-15T05:49:25;96474.69;;;6.20
61977;BMP280;45905;50.570;10.428;2023-01-15T05:51:53;96481.66;;;6.02
61977;BMP280;45905;50.570;10.428;2023-01-15T05:54:28;96492.50;;;5.87
61977;BMP280;45905;50.570;10.428;2023-01-15T05:56:56;96487.34;;;5.73
61977;BMP280;45905;50.570;10.428;2023-01-15T05:59:26;96484.84;;;5.65
61977;BMP280;45905;50.570;10.428;2023-01-15T06:01:54;96471.34;;;5.66
61977;BMP280;45905;50.570;10.428;2023-01-15T06:04:23;96479.16;;;5.63
61977;BMP280;45905;50.570;10.428;2023-01-15T06:06:54;96478.38;;;5.55
61977;BMP280;45905;50.570;10.428;2023-01-15T06:09:23;96467.72;;;5.53
61977;BMP280;45905;50.570;10.428;2023-01-15T06:11:50;96479.19;;;5.55
61977;BMP280;45905;50.570;10.428;2023-01-15T06:14:19;96473.84;;;5.51
61977;BMP280;45905;50.570;10.428;2023-01-15T06:16:47;96472.59;;;5.39
61977;BMP280;45905;50.570;10.428;2023-01-15T06:19:14;96479.03;;;5.33
61977;BMP280;45905;50.570;10.428;2023-01-15T06:21:41;96469.47;;;5.29
61977;BMP280;45905;50.570;10.428;2023-01-15T06:24:09;96481.22;;;5.29
61977;BMP280;45905;50.570;10.428;2023-01-15T06:26:37;96486.88;;;5.31
61977;BMP280;45905;50.570;10.428;2023-01-15T06:29:05;96494.56;;;5.29
61977;BMP280;45905;50.570;10.428;2023-01-15T06:31:32;96493.13;;;5.19
61977;BMP280;45905;50.570;10.428;2023-01-15T06:34:00;96501.78;;;5.24
61977;BMP280;45905;50.570;10.428;2023-01-15T06:36:27;96494.41;;;5.23
61977;BMP280;45905;50.570;10.428;2023-01-15T06:38:55;96499.25;;;5.16
61977;BMP280;45905;50.570;10.428;2023-01-15T06:41:24;96494.84;;;5.11
61977;BMP280;45905;50.570;10.428;2023-01-15T06:44:16;96496.56;;;5.10
61977;BMP280;45905;50.570;10.428;2023-01-15T06:47:16;96495.16;;;5.08
61977;BMP280;45905;50.570;10.428;2023-01-15T06:49:56;96500.19;;;5.08
61977;BMP280;45905;50.570;10.428;2023-01-15T06:52:26;96518.72;;;5.07
61977;BMP280;45905;50.570;10.428;2023-01-15T06:54:53;96505.19;;;5.08
61977;BMP280;45905;50.570;10.428;2023-01-15T06:57:21;96504.09;;;5.10
61977;BMP280;45905;50.570;10.428;2023-01-15T06:59:50;96514.00;;;5.12
61977;BMP280;45905;50.570;10.428;2023-01-15T07:02:17;96515.88;;;5.17
61977;BMP280;45905;50.570;10.428;2023-01-15T07:04:46;96501.16;;;5.22
61977;BMP280;45905;50.570;10.428;2023-01-15T07:07:16;96512.91;;;5.22
61977;BMP280;45905;50.570;10.428;2023-01-15T07:09:44;96520.91;;;5.17
61977;BMP280;45905;50.570;10.428;2023-01-15T07:12:11;96530.00;;;5.18
61977;BMP280;45905;50.570;10.428;2023-01-15T07:14:38;96530.47;;;5.22
61977;BMP280;45905;50.570;10.428;2023-01-15T07:17:06;96513.56;;;5.24
61977;BMP280;45905;50.570;10.428;2023-01-15T07:19:33;96521.22;;;5.22
61977;BMP280;45905;50.570;10.428;2023-01-15T07:22:00;96516.19;;;5.14
61977;BMP280;45905;50.570;10.428;2023-01-15T07:24:27;96523.72;;;5.07
61977;BMP280;45905;50.570;10.428;2023-01-15T07:26:55;96537.66;;;5.09
61977;BMP280;45905;50.570;10.428;2023-01-15T07:29:22;96565.75;;;5.05
61977;BMP280;45905;50.570;10.428;2023-01-15T07:31:50;96564.47;;;5.01
61977;BMP280;45905;50.570;10.428;2023-01-15T07:34:17;96566.03;;;5.02
61977;BMP280;45905;50.570;10.428;2023-01-15T07:36:45;96581.72;;;5.04
61977;BMP280;45905;50.570;10.428;2023-01-15T07:39:12;96578.44;;;5.03
61977;BMP280;45905;50.570;10.428;2023-01-15T07:41:40;96574.34;;;5.02
61977;BMP280;45905;50.570;10.428;2023-01-15T07:44:25;96571.69;;;4.96
61977;BMP280;45905;50.570;10.428;2023-01-15T07:47:22;96578.28;;;4.97
61977;BMP280;45905;50.570;10.428;2023-01-15T07:50:19;96588.31;;;4.97
61977;BMP280;45905;50.570;10.428;2023-01-15T07:52:46;96593.31;;;4.97
61977;BMP280;45905;50.570;10.428;2023-01-15T07:55:14;96598.34;;;4.97
61977;BMP280;45905;50.570;10.428;2023-01-15T07:57:42;96611.66;;;4.90
61977;BMP280;45905;50.570;10.428;2023-01-15T08:00:19;96608.19;;;4.91
61977;BMP280;45905;50.570;10.428;2023-01-15T08:02:47;96617.75;;;4.87
61977;BMP280;45905;50.570;10.428;2023-01-15T08:05:17;96609.59;;;4.85
61977;BMP280;45905;50.570;10.428;2023-01-15T08:07:44;96614.59;;;4.85
61977;BMP280;45905;50.570;10.428;2023-01-15T08:10:13;96627.16;;;4.85
61977;BMP280;45905;50.570;10.428;2023-01-15T08:12:40;96611.94;;;4.87
61977;BMP280;45905;50.570;10.428;2023-01-15T08:15:38;96610.38;;;4.86
61977;BMP280;45905;50.570;10.428;2023-01-15T08:18:06;96621.97;;;4.87
61977;BMP280;45905;50.570;10.428;2023-01-15T08:20:34;96633.25;;;4.91
61977;BMP280;45905;50.570;10.428;2023-01-15T08:23:02;96644.25;;;4.90
61977;BMP280;45905;50.570;10.428;2023-01-15T08:25:29;96638.44;;;4.81
61977;BMP280;45905;50.570;10.428;2023-01-15T08:28:00;96648.75;;;4.78
61977;BMP280;45905;50.570;10.428;2023-01-15T08:30:29;96648.47;;;4.81
61977;BMP280;45905;50.570;10.428;2023-01-15T08:33:00;96657.53;;;4.82
61977;BMP280;45905;50.570;10.428;2023-01-15T08:35:29;96658.19;;;4.84
61977;BMP280;45905;50.570;10.428;2023-01-15T08:37:57;96658.50;;;4.81
61977;BMP280;45905;50.570;10.428;2023-01-15T08:40:24;96659.75;;;4.85
61977;BMP280;45905;50.570;10.428;2023-01-15T08:42:51;96652.88;;;4.87
61977;BMP280;45905;50.570;10.428;2023-01-15T08:45:22;96648.50;;;4.89
61977;BMP280;45905;50.570;10.428;2023-01-15T08:47:54;96651.47;;;4.93
61977;BMP280;45905;50.570;10.428;2023-01-15T08:50:23;96653.19;;;4.92
61977;BMP280;45905;50.570;10.428;2023-01-15T08:52:50;96652.59;;;4.90
61977;BMP280;45905;50.570;10.428;2023-01-15T08:55:17;96659.75;;;4.85
61977;BMP280;45905;50.570;10.428;2023-01-15T08:57:44;96663.69;;;4.88
61977;BMP280;45905;50.570;10.428;2023-01-15T09:00:12;96658.84;;;4.94
61977;BMP280;45905;50.570;10.428;2023-01-15T09:02:39;96664.38;;;4.97
61977;BMP280;45905;50.570;10.428;2023-01-15T09:05:07;96667.94;;;4.95
61977;BMP280;45905;50.570;10.428;2023-01-15T09:07:34;96670.19;;;4.98
61977;BMP280;45905;50.570;10.428;2023-01-15T09:10:03;96669.19;;;4.91
61977;BMP280;45905;50.570;10.428;2023-01-15T09:12:31;96667.75;;;4.81
61977;BMP280;45905;50.570;10.428;2023-01-15T09:14:59;96674.75;;;4.77
61977;BMP280;45905;50.570;10.428;2023-01-15T09:17:31;96676.34;;;4.78
61977;BMP280;45905;50.570;10.428;2023-01-15T09:19:59;96671.47;;;4.77
61977;BMP280;45905;50.570;10.428;2023-01-15T09:22:26;96682.28;;;4.77
61977;BMP280;45905;50.570;10.428;2023-01-15T09:24:56;96678.84;;;4.78
61977;BMP280;45905;50.570;10.428;2023-01-15T09:27:23;96691.72;;;4.83
61977;BMP280;45905;50.570;10.428;2023-01-15T09:29:50;96691.53;;;4.77
61977;BMP280;45905;50.570;10.428;2023-01-15T09:32:18;96695.25;;;4.73
61977;BMP280;45905;50.570;10.428;2023-01-15T09:34:45;96702.59;;;4.67
61977;BMP280;45905;50.570;10.428;2023-01-15T09:37:12;96699.31;;;4.66
61977;BMP280;45905;50.570;10.428;2023-01-15T09:39:39;96713.00;;;4.72
61977;BMP280;45905;50.570;10.428;2023-01-15T09:43:01;96708.16;;;4.78
61977;BMP280;45905;50.570;10.428;2023-01-15T09:45:39;96705.19;;;4.82
61977;BMP280;45905;50.570;10.428;2023-01-15T09:56:44;96707.34;;;4.70
61977;BMP280;45905;50.570;10.428;2023-01-15T09:59:35;96721.44;;;4.71
61977;BMP280;45905;50.570;10.428;2023-01-15T10:02:28;96725.69;;;4.70
61977;BMP280;45905;50.570;10.428;2023-01-15T10:05:18;96723.94;;;4.71
61977;BMP280;45905;50.570;10.428;2023-01-15T10:08:18;96734.72;;;4.63
61977;BMP280;45905;50.570;10.428;2023-01-15T10:10:53;96742.03;;;4.57
61977;BMP280;45905;50.570;10.428;2023-01-15T10:13:42;96742.41;;;4.62
61977;BMP280;45905;50.570;10.428;2023-01-15T10:16:23;96729.72;;;4.63
61977;BMP280;45905;50.570;10.428;2023-01-15T10:18:52;96735.81;;;4.61
61977;BMP280;45905;50.570;10.428;2023-01-15T10:21:35;96736.41;;;4.55
61977;BMP280;45905;50.570;10.428;2023-01-15T10:24:25;96743.59;;;4.58
61977;BMP280;45905;50.570;10.428;2023-01-15T10:26:58;96737.94;;;4.56
61977;BMP280;45905;50.570;10.428;2023-01-15T10:32:42;96747.84;;;4.57
61977;BMP280;45905;50.570;10.428;2023-01-15T10:36:14;96750.72;;;4.45
61977;BMP280;45905;50.570;10.428;2023-01-15T10:39:18;96742.19;;;4.38
61977;BMP280;45905;50.570;10.428;2023-01-15T10:42:02;96750.97;;;4.35
61977;BMP280;45905;50.570;10.428;2023-01-15T10:47:34;96759.06;;;4.29
61977;BMP280;45905;50.570;10.428;2023-01-15T10:50:20;96748.44;;;4.35
61977;BMP280;45905;50.570;10.428;2023-01-15T10:53:07;96753.94;;;4.38
61977;BMP280;45905;50.570;10.428;2023-01-15T10:55:46;96747.88;;;4.40
61977;BMP280;45905;50.570;10.428;2023-01-15T10:58:41;96745.34;;;4.40
61977;BMP280;45905;50.570;10.428;2023-01-15T11:01:17;96749.88;;;4.37
61977;BMP280;45905;50.570;10.428;2023-01-15T11:03:48;96744.69;;;4.38
61977;BMP280;45905;50.570;10.428;2023-01-15T11:06:19;96742.56;;;4.43
61977;BMP280;45905;50.570;10.428;2023-01-15T11:08:56;96744.41;;;4.41
61977;BMP280;45905;50.570;10.428;2023-01-15T11:11:52;96751.81;;;4.43
61977;BMP280;45905;50.570;10.428;2023-01-15T11:14:41;96742.56;;;4.43
61977;BMP280;45905;50.570;10.428;2023-01-15T11:17:40;96746.88;;;4.34
61977;BMP280;45905;50.570;10.428;2023-01-15T11:20:32;96752.69;;;4.34
61977;BMP280;45905;50.570;10.428;2023-01-15T11:23:13;96763.91;;;4.30
61977;BMP280;45905;50.570;10.428;2023-01-15T11:25:52;96761.13;;;4.33
61977;BMP280;45905;50.570;10.428;2023-01-15T11:28:51;96767.78;;;4.25
61977;BMP280;45905;50.570;10.428;2023-01-15T11:31:19;96758.84;;;4.22
61977;BMP280;45905;50.570;10.428;2023-01-15T11:34:01;96746.16;;;4.24
61977;BMP280;45905;50.570;10.428;2023-01-15T11:36:30;96751.97;;;4.24
61977;BMP280;45905;50.570;10.428;2023-01-15T11:38:58;96741.78;;;4.26
61977;BMP280;45905;50.570;10.428;2023-01-15T11:41:34;96734.88;;;4.20
61977;BMP280;45905;50.570;10.428;2023-01-15T11:44:22;96746.16;;;4.24
61977;BMP280;45905;50.570;10.428;2023-01-15T11:47:13;96731.13;;;4.24
61977;BMP280;45905;50.570;10.428;2023-01-15T11:50:01;96712.50;;;4.26
61977;BMP280;45905;50.570;10.428;2023-01-15T11:52:53;96725.13;;;4.17
61977;BMP280;45905;50.570;10.428;2023-01-15T11:55:24;96716.94;;;4.15
61977;BMP280;45905;50.570;10.428;2023-01-15T11:57:54;96723.41;;;4.18
61977;BMP280;45905;50.570;10.428;2023-01-15T12:00:36;96720.31;;;4.23
61977;BMP280;45905;50.570;10.428;2023-01-15T12:03:19;96720.75;;;4.19
61977;BMP280;45905;50.570;10.428;2023-01-15T12:06:04;96729.84;;;4.20
61977;BMP280;45905;50.570;10.428;2023-01-15T12:09:20;96721.09;;;4.24
61977;BMP280;45905;50.570;10.428;2023-01-15T12:17:37;96712.84;;;4.31
61977;BMP280;45905;50.570;10.428;2023-01-15T12:20:56;96719.94;;;4.36
61977;BMP280;45905;50.570;10.428;2023-01-15T12:27:21;96722.41;;;4.28
61977;BMP280;45905;50.570;10.428;2023-01-15T12:33:09;96718.28;;;4.44
61977;BMP280;45905;50.570;10.428;2023-01-15T12:36:05;96714.06;;;4.44
61977;BMP280;45905;50.570;10.428;2023-01-15T12:38:46;96719.22;;;4.43
61977;BMP280;45905;50.570;10.428;2023-01-15T12:41:22;96717.97;;;4.47
61977;BMP280;45905;50.570;10.428;2023-01-15T12:43:56;96723.00;;;4.47
61977;BMP280;45905;50.570;10.428;2023-01-15T12:46:44;96709.25;;;4.51
61977;BMP280;45905;50.570;10.428;2023-01-15T12:49:30;96716.34;;;4.55
61977;BMP280;45905;50.570;10.428;2023-01-15T12:52:23;96703.72;;;4.47
61977;BMP280;45905;50.570;10.428;2023-01-15T12:55:19;96702.16;;;4.46
61977;BMP280;45905;50.570;10.428;2023-01-15T12:57:54;96714.06;;;4.44
61977;BMP280;45905;50.570;10.428;2023-01-15T13:00:40;96724.09;;;4.44
61977;BMP280;45905;50.570;10.428;2023-01-15T13:03:20;96736.91;;;4.41
61977;BMP280;45905;50.570;10.428;2023-01-15T13:06:01;96723.09;;;4.38
61977;BMP280;45905;50.570;10.428;2023-01-15T13:08:50;96727.81;;;4.40
61977;BMP280;45905;50.570;10.428;2023-01-15T13:11:20;96735.03;;;4.43
61977;BMP280;45905;50.570;10.428;2023-01-15T13:13:48;96725.28;;;4.40
61977;BMP280;45905;50.570;10.428;2023-01-15T13:22:18;96728.31;;;4.44
61977;BMP280;45905;50.570;10.428;2023-01-15T13:27:56;96724.88;;;4.45
61977;BMP280;45905;50.570;10.428;2023-01-15T13:33:55;96724.78;;;4.54
61977;BMP280;45905;50.570;10.428;2023-01-15T13:36:39;96731.06;;;4.58
61977;BMP280;45905;50.570;10.428;2023-01-15T13:39:21;96726.41;;;4.63
61977;BMP280;45905;50.570;10.428;2023-01-15T13:41:52;96717.66;;;4.67
61977;BMP280;45905;50.570;10.428;2023-01-15T13:44:47;96731.75;;;4.68
61977;BMP280;45905;50.570;10.428;2023-01-15T13:47:23;96735.25;;;4.75
61977;BMP280;45905;50.570;10.428;2023-01-15T13:49:57;96743.78;;;4.81
61977;BMP280;45905;50.570;10.428;2023-01-15T13:52:35;96752.25;;;4.80
61977;BMP280;45905;50.570;10.428;2023-01-15T13:55:29;96745.31;;;4.82
61977;BMP280;45905;50.570;10.428;2023-01-15T13:57:58;96745.19;;;4.84
61977;BMP280;45905;50.570;10.428;2023-01-15T14:00:33;96745.69;;;4.87
61977;BMP280;45905;50.570;10.428;2023-01-15T14:03:29;96748.38;;;4.94
61977;BMP280;45905;50.570;10.428;2023-01-15T14:06:06;96762.66;;;4.93
61977;BMP280;45905;50.570;10.428;2023-01-15T14:08:42;96761.97;;;4.83
61977;BMP280;45905;50.570;10.428;2023-01-15T14:11:37;96765.41;;;4.82
61977;BMP280;45905;50.570;10.428;2023-01-15T14:14:45;96769.34;;;4.85
61977;BMP280;45905;50.570;10.428;2023-01-15T14:17:49;96775.28;;;4.84
61977;BMP280;45905;50.570;10.428;2023-01-15T14:26:35;96783.59;;;4.84
61977;BMP280;45905;50.570;10.428;2023-01-15T14:35:23;96801.47;;;4.81
61977;BMP280;45905;50.570;10.428;2023-01-15T14:37:57;96806.63;;;4.80
61977;BMP280;45905;50.570;10.428;2023-01-15T14:40:31;96813.22;;;4.81
61977;BMP280;45905;50.570;10.428;2023-01-15T14:43:07;96819.97;;;4.80
61977;BMP280;45905;50.570;10.428;2023-01-15T14:50:42;96825.59;;;4.82
61977;BMP280;45905;50.570;10.428;2023-01-15T14:55:55;96840.03;;;4.80
61977;BMP280;45905;50.570;10.428;2023-01-15T15:01:36;96850.50;;;4.76
61977;BMP280;45905;50.570;10.428;2023-01-15T15:07:09;96855.50;;;4.76
61977;BMP280;45905;50.570;10.428;2023-01-15T15:15:34;96854.44;;;4.78
61977;BMP280;45905;50.570;10.428;2023-01-15T15:18:56;96854.44;;;4.78
61977;BMP280;45905;50.570;10.428;2023-01-15T15:21:37;96856.28;;;4.76
61977;BMP280;45905;50.570;10.428;2023-01-15T15:24:28;96853.00;;;4.76
61977;BMP280;45905;50.570;10.428;2023-01-15T15:27:18;96856.94;;;4.78
61977;BMP280;45905;50.570;10.428;2023-01-15T15:29:46;96857.88;;;4.77
61977;BMP280;45905;50.570;10.428;2023-01-15T15:32:21;96867.63;;;4.80
61977;BMP280;45905;50.570;10.428;2023-01-15T15:34:52;96872.66;;;4.80
61977;BMP280;45905;50.570;10.428;2023-01-15T15:37:26;96866.34;;;4.76
61977;BMP280;45905;50.570;10.428;2023-01-15T15:40:01;96860.53;;;4.76
61977;BMP280;45905;50.570;10.428;2023-01-15T15:42:41;96862.91;;;4.77
61977;BMP280;45905;50.570;10.428;2023-01-15T15:45:30;96860.81;;;4.73
61977;BMP280;45905;50.570;10.428;2023-01-15T15:48:29;96850.00;;;4.73
61977;BMP280;45905;50.570;10.428;2023-01-15T15:54:28;96852.34;;;4.74
61977;BMP280;45905;50.570;10.428;2023-01-15T15:57:16;96852.53;;;4.73
61977;BMP280;45905;50.570;10.428;2023-01-15T15:59:48;96841.84;;;4.71
61977;BMP280;45905;50.570;10.428;2023-01-15T16:02:31;96845.63;;;4.75
61977;BMP280;45905;50.570;10.428;2023-01-15T16:05:25;96847.06;;;4.77
61977;BMP280;45905;50.570;10.428;2023-01-15T16:07:54;96847.84;;;4.77
61977;BMP280;45905;50.570;10.428;2023-01-15T16:10:29;96856.56;;;4.74
61977;BMP280;45905;50.570;10.428;2023-01-15T16:13:03;96852.06;;;4.77
61977;BMP280;45905;50.570;10.428;2023-01-15T16:15:39;96850.28;;;4.70
61977;BMP280;45905;50.570;10.428;2023-01-15T16:18:27;96866.78;;;4.72
61977;BMP280;45905;50.570;10.428;2023-01-15T16:20:56;96848.25;;;4.73
61977;BMP280;45905;50.570;10.428;2023-01-15T16:23:29;96855.78;;;4.73
61977;BMP280;45905;50.570;10.428;2023-01-15T16:26:17;96874.50;;;4.78
61977;BMP280;45905;50.570;10.428;2023-01-15T16:28:55;96864.63;;;4.77